Time;durP1;ratioP1;P1;durP2;ratioP2;P2;SDS_P1;SDS_P2;PMS_P1;PMS_P2;Temp;Humidity;BMP_temperature;BMP_pressure;BME280_temperature;BME280_humidity;BME280_pressure;Samples;Min_cycle;Max_cycle;Signal;HPM_P1;HPM_P2
2023/08/04 00:01:14;;;;;;;7.07;3.45;;;16.20;99.90;;;;;;4986783;28;89608;-39
2023/08/04 00:03:39;;;;;;;11.02;3.38;;;16.20;99.90;;;;;;4996496;28;89007;-33
2023/08/04 00:06:09;;;;;;;9.50;4.00;;;16.20;99.90;;;;;;4996690;28;89114;-31
2023/08/04 00:08:34;;;;;;;9.13;3.17;;;16.20;99.90;;;;;;4996620;28;89759;-37
2023/08/04 00:11:00;;;;;;;5.53;3.15;;;16.20;99.90;;;;;;4997061;28;91208;-33
2023/08/04 00:13:26;;;;;;;4.97;2.50;;;16.20;99.90;;;;;;4993920;28;89248;-36
2023/08/04 00:15:52;;;;;;;4.43;3.20;;;16.20;99.90;;;;;;4998767;28;90433;-33
2023/08/04 00:18:17;;;;;;;8.02;3.15;;;16.20;99.90;;;;;;4997133;28;89663;-37
2023/08/04 00:20:43;;;;;;;9.30;3.28;;;16.20;99.90;;;;;;5004001;28;88448;-36
2023/08/04 00:23:09;;;;;;;11.30;3.72;;;16.10;99.90;;;;;;5002591;28;89878;-31
2023/08/04 00:25:34;;;;;;;3.50;3.13;;;16.10;99.90;;;;;;5003510;28;89493;-35
2023/08/04 00:28:00;;;;;;;7.10;3.55;;;16.20;99.90;;;;;;5002062;28;90665;-34
2023/08/04 00:30:26;;;;;;;5.05;2.90;;;16.20;99.90;;;;;;5004914;28;89912;-32
2023/08/04 00:32:53;;;;;;;8.35;3.45;;;16.10;99.90;;;;;;4994821;28;88400;-35
2023/08/04 00:35:19;;;;;;;11.38;3.60;;;16.10;99.90;;;;;;4988128;28;90393;-39
2023/08/04 00:37:45;;;;;;;6.18;3.03;;;16.10;99.90;;;;;;5004135;28;90915;-38
2023/08/04 00:40:11;;;;;;;4.35;2.95;;;16.10;99.90;;;;;;5003401;28;90093;-32
2023/08/04 00:42:36;;;;;;;7.93;3.85;;;16.10;99.90;;;;;;5004891;28;89738;-35
2023/08/04 00:45:04;;;;;;;7.25;3.47;;;16.10;99.90;;;;;;5002941;28;89884;-38
2023/08/04 00:47:35;;;;;;;4.05;3.13;;;16.10;99.90;;;;;;5004272;28;89894;-33
2023/08/04 00:50:06;;;;;;;19.30;4.13;;;16.00;99.90;;;;;;5003690;28;89247;-33
2023/08/04 00:52:32;;;;;;;5.55;3.70;;;16.00;99.90;;;;;;4986891;28;88261;-38
2023/08/04 00:54:57;;;;;;;6.20;3.67;;;16.00;99.90;;;;;;5003835;28;90159;-34
2023/08/04 00:57:23;;;;;;;7.35;3.25;;;16.00;99.90;;;;;;5003425;28;89514;-39
2023/08/04 00:59:49;;;;;;;5.60;2.95;;;16.00;99.90;;;;;;5003837;28;89378;-38
2023/08/04 01:02:15;;;;;;;5.35;3.55;;;16.00;99.90;;;;;;5001440;28;89092;-35
2023/08/04 01:04:40;;;;;;;6.07;3.53;;;16.00;99.90;;;;;;5001222;28;89795;-39
2023/08/04 01:07:25;;;;;;;6.40;2.53;;;16.00;99.90;;;;;;4999564;28;89759;-33
2023/08/04 01:10:20;;;;;;;9.05;3.70;;;16.00;99.90;;;;;;4993511;28;89618;-37
2023/08/04 01:13:05;;;;;;;4.03;3.10;;;16.00;99.90;;;;;;4994286;28;88625;-35
2023/08/04 01:15:31;;;;;;;9.20;3.33;;;16.00;99.90;;;;;;4999473;28;88405;-32
2023/08/04 01:17:58;;;;;;;6.75;3.67;;;16.00;99.90;;;;;;5002160;28;89646;-38
2023/08/04 01:20:25;;;;;;;4.68;3.28;;;16.00;99.90;;;;;;4998370;28;89769;-38
2023/08/04 01:22:51;;;;;;;4.60;3.50;;;16.00;99.90;;;;;;5004563;28;89342;-32
2023/08/04 01:25:23;;;;;;;7.25;3.60;;;15.90;99.90;;;;;;4997644;28;89780;-33
2023/08/04 01:28:01;;;;;;;7.13;3.03;;;15.90;99.90;;;;;;5001631;28;90565;-31
2023/08/04 01:30:28;;;;;;;6.95;4.50;;;15.90;99.90;;;;;;4998878;28;91408;-33
2023/08/04 01:32:54;;;;;;;6.93;3.87;;;15.90;99.90;;;;;;4995947;28;89583;-32
2023/08/04 01:35:20;;;;;;;6.03;3.75;;;15.80;99.90;;;;;;4998690;28;91165;-32
2023/08/04 01:37:46;;;;;;;5.60;2.90;;;15.80;99.90;;;;;;4995759;28;88763;-35
2023/08/04 01:40:12;;;;;;;8.93;3.53;;;15.70;99.90;;;;;;4998758;28;89234;-35
2023/08/04 01:42:38;;;;;;;6.32;3.72;;;15.70;99.90;;;;;;4997320;28;89026;-35
2023/08/04 01:45:04;;;;;;;4.47;3.05;;;15.80;99.90;;;;;;4998457;28;90424;-32
2023/08/04 01:47:30;;;;;;;4.85;3.72;;;15.70;99.90;;;;;;4996060;28;89238;-34
2023/08/04 01:49:55;;;;;;;5.13;3.20;;;15.60;99.90;;;;;;4998376;28;90830;-34
2023/08/04 01:52:22;;;;;;;7.78;4.20;;;15.70;99.90;;;;;;4999775;28;88993;-31
2023/08/04 01:54:47;;;;;;;6.25;3.40;;;15.70;99.90;;;;;;4999004;28;90525;-33
2023/08/04 01:57:13;;;;;;;3.65;3.20;;;15.60;99.90;;;;;;4995996;28;89621;-31
2023/08/04 01:59:39;;;;;;;8.38;3.70;;;15.60;99.90;;;;;;4999272;28;89478;-37
2023/08/04 02:02:04;;;;;;;4.53;3.63;;;15.60;99.90;;;;;;4997855;28;89075;-35
2023/08/04 02:04:30;;;;;;;7.53;3.58;;;15.60;99.90;;;;;;4992200;28;90120;-36
2023/08/04 02:06:55;;;;;;;6.22;4.10;;;15.60;99.90;;;;;;4981709;28;90281;-34
2023/08/04 02:09:22;;;;;;;5.65;3.70;;;15.60;99.90;;;;;;4992482;28;89474;-35
2023/08/04 02:11:48;;;;;;;6.68;3.78;;;15.60;99.90;;;;;;4982375;28;88083;-35
2023/08/04 02:14:15;;;;;;;7.43;3.33;;;15.60;99.90;;;;;;4999513;28;90359;-36
2023/08/04 02:16:41;;;;;;;9.45;3.42;;;15.60;99.90;;;;;;4997879;28;90181;-32
2023/08/04 02:19:08;;;;;;;3.92;2.85;;;15.60;99.90;;;;;;4999987;28;90517;-35
2023/08/04 02:21:35;;;;;;;8.57;3.73;;;15.60;99.90;;;;;;4999284;28;89499;-35
2023/08/04 02:24:00;;;;;;;7.57;3.33;;;15.60;99.90;;;;;;5000461;28;89648;-33
2023/08/04 02:26:26;;;;;;;5.47;3.15;;;15.60;99.90;;;;;;4998775;28;89576;-37
2023/08/04 02:28:53;;;;;;;4.35;2.67;;;15.60;99.90;;;;;;4999022;28;90136;-33
2023/08/04 02:31:20;;;;;;;7.97;2.53;;;15.60;99.90;;;;;;4988770;28;89910;-34
2023/08/04 02:33:46;;;;;;;5.40;3.10;;;15.60;99.90;;;;;;4985485;28;90142;-36
2023/08/04 02:36:13;;;;;;;5.70;2.88;;;15.50;99.90;;;;;;4988572;28;89566;-34
2023/08/04 02:38:39;;;;;;;4.03;2.53;;;15.60;99.90;;;;;;4979782;28;89313;-35
2023/08/04 02:41:05;;;;;;;2.28;2.08;;;15.50;99.90;;;;;;4979771;28;90170;-33
2023/08/04 02:43:31;;;;;;;7.10;2.15;;;15.60;99.90;;;;;;4978679;28;90842;-34
2023/08/04 02:45:57;;;;;;;2.53;2.15;;;15.50;99.90;;;;;;4992789;28;89692;-34
2023/08/04 02:48:23;;;;;;;4.68;2.53;;;15.60;99.90;;;;;;4994514;28;89712;-34
2023/08/04 02:51:09;;;;;;;6.10;3.00;;;15.50;99.90;;;;;;4980801;28;88880;-34
2023/08/04 02:53:37;;;;;;;2.15;1.95;;;15.50;99.90;;;;;;4980128;28;90196;-33
2023/08/04 02:56:29;;;;;;;4.23;2.33;;;15.50;99.90;;;;;;4980579;28;89910;-37
2023/08/04 02:58:54;;;;;;;3.83;2.40;;;15.50;99.90;;;;;;4960190;28;90159;-39
2023/08/04 03:01:20;;;;;;;4.07;2.33;;;15.40;99.90;;;;;;4996687;28;89945;-32
2023/08/04 03:03:45;;;;;;;4.63;1.90;;;15.50;99.90;;;;;;4999346;28;90576;-33
2023/08/04 03:06:11;;;;;;;5.72;2.25;;;15.40;99.90;;;;;;4998443;28;90710;-34
2023/08/04 03:08:37;;;;;;;8.98;2.40;;;15.40;99.90;;;;;;4999172;28;90031;-31
2023/08/04 03:11:09;;;;;;;1.85;1.65;;;15.40;99.90;;;;;;4999097;28;88019;-36
2023/08/04 03:13:34;;;;;;;7.55;2.35;;;15.40;99.90;;;;;;4999007;28;88890;-34
2023/08/04 03:16:01;;;;;;;3.20;2.28;;;15.40;99.90;;;;;;4999482;28;89712;-33
2023/08/04 03:18:27;;;;;;;4.25;2.60;;;15.40;99.90;;;;;;4998948;28;88806;-33
2023/08/04 03:20:53;;;;;;;3.78;2.17;;;15.40;99.90;;;;;;4998704;28;88719;-36
2023/08/04 03:23:19;;;;;;;3.08;2.53;;;15.30;99.90;;;;;;4999155;28;89807;-37
2023/08/04 03:25:45;;;;;;;3.10;2.60;;;15.40;99.90;;;;;;4998783;28;89043;-33
2023/08/04 03:28:11;;;;;;;5.35;2.70;;;15.40;99.90;;;;;;4998528;28;89582;-38
2023/08/04 03:30:37;;;;;;;3.90;2.53;;;15.40;99.90;;;;;;4998713;28;90196;-33
2023/08/04 03:33:02;;;;;;;4.70;2.17;;;15.40;99.90;;;;;;4998790;28;88170;-36
2023/08/04 03:35:28;;;;;;;3.70;2.85;;;15.40;99.90;;;;;;4999402;28;90043;-37
2023/08/04 03:37:54;;;;;;;5.13;2.70;;;15.40;99.90;;;;;;4998748;28;89373;-37
2023/08/04 03:40:20;;;;;;;4.72;2.72;;;15.40;99.90;;;;;;4998196;28;90513;-32
2023/08/04 03:42:45;;;;;;;2.97;2.47;;;15.40;99.90;;;;;;4999424;28;90170;-35
2023/08/04 03:45:11;;;;;;;5.70;2.53;;;15.40;99.90;;;;;;4998178;28;90793;-33
2023/08/04 03:47:36;;;;;;;6.80;2.85;;;15.40;99.90;;;;;;5000182;28;88496;-33
2023/08/04 03:50:03;;;;;;;5.88;3.00;;;15.30;99.90;;;;;;4998858;28;89762;-36
2023/08/04 03:52:28;;;;;;;4.22;3.13;;;15.30;99.90;;;;;;4998929;28;90260;-33
2023/08/04 03:54:55;;;;;;;7.78;3.38;;;15.30;99.90;;;;;;4997424;28;90252;-35
2023/08/04 03:57:20;;;;;;;4.60;3.28;;;15.30;99.90;;;;;;4998756;28;90481;-32
2023/08/04 03:59:46;;;;;;;4.82;2.83;;;15.30;99.90;;;;;;4998789;28;89637;-34
2023/08/04 04:02:11;;;;;;;5.68;3.03;;;15.30;99.90;;;;;;4998093;28;89919;-33
2023/08/04 04:04:37;;;;;;;3.83;3.42;;;15.30;99.90;;;;;;4999569;28;89623;-33
2023/08/04 04:07:03;;;;;;;3.15;2.75;;;15.30;99.90;;;;;;4996722;28;90103;-36
2023/08/04 04:09:28;;;;;;;11.48;3.88;;;15.20;99.90;;;;;;4998004;28;89522;-38
2023/08/04 04:11:54;;;;;;;7.32;3.38;;;15.30;99.90;;;;;;4996799;28;90463;-37
2023/08/04 04:14:20;;;;;;;11.93;4.38;;;15.20;99.90;;;;;;4997764;28;89853;-39
2023/08/04 04:16:45;;;;;;;3.58;2.88;;;15.20;99.90;;;;;;4978170;28;89981;-31
2023/08/04 04:19:11;;;;;;;3.70;2.53;;;15.20;99.90;;;;;;4996261;28;90230;-38
2023/08/04 04:21:37;;;;;;;6.47;3.60;;;15.20;99.90;;;;;;4997040;28;91093;-32
2023/08/04 04:24:03;;;;;;;4.15;2.63;;;15.20;99.90;;;;;;4996875;28;89800;-37
2023/08/04 04:26:29;;;;;;;10.10;4.32;;;15.30;99.90;;;;;;4995733;28;90559;-35
2023/08/04 04:28:54;;;;;;;14.68;4.47;;;15.30;99.90;;;;;;4997596;28;90103;-33
2023/08/04 04:31:20;;;;;;;7.13;2.90;;;15.30;99.90;;;;;;4986731;28;90706;-31
2023/08/04 04:33:45;;;;;;;4.70;2.72;;;15.30;99.90;;;;;;4992186;28;89649;-34
2023/08/04 04:36:11;;;;;;;2.80;2.50;;;15.30;99.90;;;;;;4989848;28;89936;-35
2023/08/04 04:38:37;;;;;;;5.38;1.60;;;15.20;99.90;;;;;;4981385;28;90450;-33
2023/08/04 04:41:02;;;;;;;3.58;1.67;;;15.20;99.90;;;;;;4978889;28;90027;-33
2023/08/04 04:43:29;;;;;;;5.72;1.55;;;15.30;99.90;;;;;;4978211;28;89458;-39
2023/08/04 04:45:55;;;;;;;2.70;2.10;;;15.30;99.90;;;;;;4990890;28;90143;-36
2023/08/04 04:48:22;;;;;;;3.10;1.70;;;15.30;99.90;;;;;;4989122;28;90123;-32
2023/08/04 04:50:49;;;;;;;2.88;1.70;;;15.20;99.90;;;;;;4990894;28;90468;-38
2023/08/04 04:53:15;;;;;;;2.60;2.00;;;15.20;99.90;;;;;;4997637;28;89772;-36
2023/08/04 04:55:41;;;;;;;4.60;2.20;;;15.20;99.90;;;;;;4985289;28;89840;-38
2023/08/04 04:58:07;;;;;;;2.90;2.22;;;15.20;99.90;;;;;;4979480;28;88287;-36
2023/08/04 05:00:34;;;;;;;4.25;2.25;;;15.20;99.90;;;;;;4980393;28;90224;-30
2023/08/04 05:03:01;;;;;;;3.90;2.30;;;15.20;99.90;;;;;;4988939;28;88410;-38
2023/08/04 05:05:28;;;;;;;4.85;2.63;;;15.20;99.90;;;;;;4979831;28;88366;-36
2023/08/04 05:07:54;;;;;;;7.53;2.97;;;15.30;99.90;;;;;;4982443;28;88585;-37
2023/08/04 05:10:20;;;;;;;6.70;2.47;;;15.30;99.90;;;;;;4981433;28;91038;-35
2023/08/04 05:12:45;;;;;;;4.70;2.45;;;15.30;99.90;;;;;;4981800;28;90127;-35
2023/08/04 05:15:11;;;;;;;6.43;2.67;;;15.30;99.90;;;;;;4981202;28;91213;-36
2023/08/04 05:17:36;;;;;;;9.65;3.30;;;15.30;99.90;;;;;;4982571;28;89599;-35
2023/08/04 05:20:03;;;;;;;8.18;3.35;;;15.30;99.90;;;;;;4982088;28;90139;-36
2023/08/04 05:22:29;;;;;;;3.85;3.15;;;15.40;99.90;;;;;;4980966;28;91300;-37
2023/08/04 05:24:54;;;;;;;3.33;2.67;;;15.40;99.90;;;;;;4981212;28;89484;-36
2023/08/04 05:27:20;;;;;;;8.85;3.45;;;15.40;99.90;;;;;;4981851;28;88982;-34
2023/08/04 05:29:46;;;;;;;4.43;2.65;;;15.40;99.90;;;;;;4997350;28;90734;-33
2023/08/04 05:32:11;;;;;;;8.25;3.25;;;15.50;99.90;;;;;;4986517;28;91500;-32
2023/08/04 05:34:37;;;;;;;5.03;2.22;;;15.50;99.90;;;;;;4989407;28;90147;-36
2023/08/04 05:37:03;;;;;;;3.65;2.53;;;15.50;99.90;;;;;;4986916;28;89011;-37
2023/08/04 05:39:28;;;;;;;6.40;1.92;;;15.50;99.90;;;;;;5001263;28;91774;-34
2023/08/04 05:41:54;;;;;;;3.85;2.33;;;15.50;99.90;;;;;;4983087;28;89728;-33
2023/08/04 05:44:22;;;;;;;3.65;2.55;;;15.60;99.90;;;;;;4964422;28;89215;-34
2023/08/04 05:46:48;;;;;;;4.15;2.30;;;15.60;99.90;;;;;;4997284;28;89076;-37
2023/08/04 05:49:13;;;;;;;3.10;1.98;;;15.60;99.90;;;;;;4985243;28;88793;-34
2023/08/04 05:51:39;;;;;;;4.55;2.13;;;15.70;99.90;;;;;;4988490;28;91021;-33
2023/08/04 05:54:04;;;;;;;2.92;2.70;;;15.70;99.90;;;;;;4985112;28;89399;-33
2023/08/04 05:56:30;;;;;;;1.90;1.77;;;15.70;99.90;;;;;;4988217;28;88628;-36
2023/08/04 05:58:56;;;;;;;4.43;2.00;;;15.70;99.90;;;;;;4984140;28;89697;-36
2023/08/04 06:01:21;;;;;;;4.00;1.80;;;15.80;99.90;;;;;;5000303;28;89629;-35
2023/08/04 06:03:47;;;;;;;6.25;2.38;;;15.80;99.90;;;;;;4999882;28;90569;-36
2023/08/04 06:06:12;;;;;;;2.60;2.05;;;15.80;99.90;;;;;;4999653;28;89003;-33
2023/08/04 06:08:38;;;;;;;6.07;2.42;;;15.90;99.90;;;;;;4999483;28;90770;-31
2023/08/04 06:11:04;;;;;;;3.00;1.92;;;15.90;99.90;;;;;;4999377;28;90104;-33
2023/08/04 06:13:29;;;;;;;3.13;2.33;;;15.90;99.90;;;;;;4980055;28;88981;-35
2023/08/04 06:15:55;;;;;;;2.28;2.08;;;15.90;99.90;;;;;;5000392;28;88352;-38
2023/08/04 06:18:21;;;;;;;2.75;1.90;;;15.90;99.90;;;;;;4988410;28;90249;-34
2023/08/04 06:20:47;;;;;;;3.38;2.50;;;16.00;99.90;;;;;;4985630;28;92352;-36
2023/08/04 06:23:13;;;;;;;3.50;2.70;;;16.00;99.90;;;;;;4983827;28;90055;-36
2023/08/04 06:25:39;;;;;;;4.40;2.63;;;16.10;99.90;;;;;;4985919;28;88533;-37
2023/08/04 06:28:04;;;;;;;3.42;2.35;;;16.10;99.90;;;;;;4993360;28;89683;-33
2023/08/04 06:30:31;;;;;;;2.50;1.70;;;16.20;99.90;;;;;;4997805;28;89314;-32
2023/08/04 06:32:56;;;;;;;2.40;1.98;;;16.20;99.90;;;;;;4998483;28;89761;-35
2023/08/04 06:35:22;;;;;;;3.53;2.28;;;16.20;99.90;;;;;;4997566;28;88217;-33
2023/08/04 06:37:48;;;;;;;2.78;2.10;;;16.20;99.90;;;;;;4998255;28;90368;-33
2023/08/04 06:40:13;;;;;;;5.32;2.42;;;16.30;99.90;;;;;;4997062;28;90311;-34
2023/08/04 06:42:39;;;;;;;3.83;2.75;;;16.30;99.90;;;;;;4997349;28;90526;-35
2023/08/04 06:45:09;;;;;;;3.80;2.15;;;16.40;99.90;;;;;;4997208;28;90411;-35
2023/08/04 06:47:34;;;;;;;6.25;3.00;;;16.40;99.90;;;;;;4998068;28;91593;-36
2023/08/04 06:50:00;;;;;;;4.22;2.72;;;16.40;99.90;;;;;;4997601;28;89083;-37
2023/08/04 06:52:27;;;;;;;7.07;2.75;;;16.50;99.90;;;;;;4997876;28;89698;-32
2023/08/04 06:54:53;;;;;;;3.78;2.70;;;16.50;99.90;;;;;;4997748;28;88856;-31
2023/08/04 06:57:19;;;;;;;2.83;2.25;;;16.50;99.90;;;;;;4997812;28;90503;-35
2023/08/04 06:59:45;;;;;;;4.43;2.30;;;16.50;99.90;;;;;;4979295;28;90429;-31
2023/08/04 07:02:10;;;;;;;3.13;2.75;;;16.60;99.90;;;;;;4995460;28;89483;-33
2023/08/04 07:04:36;;;;;;;3.97;2.30;;;16.60;99.90;;;;;;4990166;28;89676;-32
2023/08/04 07:07:02;;;;;;;3.17;2.55;;;16.60;99.90;;;;;;4988726;28;89858;-35
2023/08/04 07:09:28;;;;;;;2.70;2.50;;;16.60;99.90;;;;;;4978633;28;91016;-33
2023/08/04 07:11:53;;;;;;;3.10;2.80;;;16.70;99.90;;;;;;4981014;28;91795;-33
2023/08/04 07:14:19;;;;;;;3.35;2.90;;;16.80;99.90;;;;;;4980755;28;90595;-32
2023/08/04 07:16:46;;;;;;;4.78;2.55;;;16.80;99.90;;;;;;4998394;28;90355;-32
2023/08/04 07:19:13;;;;;;;2.58;2.05;;;16.80;99.90;;;;;;4988652;28;90097;-35
2023/08/04 07:21:38;;;;;;;7.18;2.85;;;16.80;99.90;;;;;;4987310;28;89139;-34
2023/08/04 07:24:04;;;;;;;2.70;2.30;;;16.90;99.90;;;;;;4990624;28;88295;-33
2023/08/04 07:26:32;;;;;;;4.88;3.28;;;16.90;99.90;;;;;;4976303;28;90628;-36
2023/08/04 07:28:58;;;;;;;4.68;3.08;;;16.90;99.90;;;;;;4985976;28;89715;-36
2023/08/04 07:31:23;;;;;;;3.55;2.80;;;16.90;99.90;;;;;;4999365;28;90853;-34
2023/08/04 07:33:49;;;;;;;7.32;3.10;;;16.90;99.90;;;;;;4978411;28;89689;-33
2023/08/04 07:36:15;;;;;;;4.10;2.38;;;17.00;99.90;;;;;;4979267;28;90084;-34
2023/08/04 07:38:41;;;;;;;5.93;2.78;;;17.10;99.90;;;;;;4983960;28;89656;-32
2023/08/04 07:41:06;;;;;;;5.95;2.40;;;17.20;99.90;;;;;;4998829;28;90603;-38
2023/08/04 07:43:32;;;;;;;3.08;2.42;;;17.30;99.90;;;;;;4977695;28;89126;-34
2023/08/04 07:45:58;;;;;;;3.83;2.47;;;17.60;99.90;;;;;;4978936;28;88754;-36
2023/08/04 07:48:24;;;;;;;3.83;2.58;;;18.10;99.90;;;;;;4984779;28;90088;-31
2023/08/04 07:50:50;;;;;;;5.03;2.33;;;18.30;99.90;;;;;;4985699;28;89442;-32
2023/08/04 07:53:16;;;;;;;3.33;2.00;;;18.60;99.90;;;;;;4984973;28;88778;-37
2023/08/04 07:55:52;;;;;;;4.88;2.15;;;18.60;99.90;;;;;;4998906;28;90406;-33
2023/08/04 07:58:18;;;;;;;2.50;2.30;;;18.70;99.90;;;;;;4985792;28;90461;-36
2023/08/04 08:00:44;;;;;;;4.20;1.95;;;18.80;99.90;;;;;;4998151;28;90332;-35
2023/08/04 08:03:09;;;;;;;2.47;1.92;;;18.80;99.90;;;;;;4988312;28;89631;-34
2023/08/04 08:05:35;;;;;;;3.00;2.25;;;18.80;99.90;;;;;;4981339;28;90786;-34
2023/08/04 08:08:01;;;;;;;4.35;2.33;;;18.80;99.90;;;;;;4999030;28;91463;-34
2023/08/04 08:10:27;;;;;;;3.40;2.35;;;18.80;99.90;;;;;;4998003;28;88915;-32
2023/08/04 08:12:53;;;;;;;2.42;2.08;;;18.80;99.90;;;;;;4988292;28;89648;-33
2023/08/04 08:15:19;;;;;;;3.60;2.10;;;18.80;99.90;;;;;;5026260;22;90118;-33
2023/08/04 08:17:45;;;;;;;1.88;1.70;;;18.70;99.90;;;;;;4989315;28;89751;-34
2023/08/04 08:20:11;;;;;;;8.38;2.08;;;18.70;99.90;;;;;;4994080;28;89079;-34
2023/08/04 08:22:37;;;;;;;4.80;2.38;;;18.70;99.90;;;;;;4978176;28;89416;-34
2023/08/04 08:25:02;;;;;;;2.38;2.17;;;18.70;99.90;;;;;;4983786;28;90392;-36
2023/08/04 08:27:28;;;;;;;4.03;1.98;;;18.60;99.90;;;;;;4998116;28;90414;-35
2023/08/04 08:29:55;;;;;;;4.38;2.70;;;18.70;99.90;;;;;;4992883;28;88900;-34
2023/08/04 08:32:21;;;;;;;7.43;2.38;;;18.60;99.90;;;;;;4997967;28;89027;-33
2023/08/04 08:34:46;;;;;;;2.90;2.17;;;18.60;99.90;;;;;;4997883;28;91051;-35
2023/08/04 08:37:12;;;;;;;2.25;2.05;;;18.60;99.90;;;;;;4997578;28;89724;-34
2023/08/04 08:39:37;;;;;;;6.22;1.83;;;18.60;99.90;;;;;;4998920;28;90670;-33
2023/08/04 08:42:03;;;;;;;4.68;2.40;;;18.70;99.90;;;;;;5000419;28;88087;-36
2023/08/04 08:44:29;;;;;;;4.22;2.17;;;18.70;99.90;;;;;;5000984;28;90370;-31
2023/08/04 08:46:55;;;;;;;4.72;2.10;;;18.60;99.90;;;;;;4999969;28;90212;-35
2023/08/04 08:49:26;;;;;;;5.00;2.38;;;18.60;99.90;;;;;;5000931;28;89814;-33
2023/08/04 08:51:54;;;;;;;5.80;2.00;;;18.50;99.90;;;;;;4988985;28;89828;-38
2023/08/04 08:54:20;;;;;;;1.90;1.80;;;18.60;99.90;;;;;;4999995;28;90058;-37
2023/08/04 08:56:46;;;;;;;18.38;2.95;;;18.70;99.90;;;;;;5001877;28;89798;-36
2023/08/04 08:59:12;;;;;;;3.40;2.00;;;18.90;99.90;;;;;;4986966;28;89220;-36
2023/08/04 09:01:38;;;;;;;3.47;1.60;;;18.90;99.90;;;;;;4993003;28;89743;-33
2023/08/04 09:04:05;;;;;;;1.90;1.80;;;19.30;99.90;;;;;;5000164;28;90991;-33
2023/08/04 09:06:30;;;;;;;7.35;2.50;;;19.60;99.90;;;;;;4983248;28;89900;-34
2023/08/04 09:09:00;;;;;;;2.40;1.95;;;20.00;99.90;;;;;;5000715;28;90236;-35
2023/08/04 09:11:28;;;;;;;2.55;1.42;;;20.20;99.90;;;;;;5001111;28;90451;-33
2023/08/04 09:13:55;;;;;;;4.55;2.40;;;20.20;99.90;;;;;;5000342;28;90483;-33
2023/08/04 09:16:36;;;;;;;4.30;1.92;;;20.20;99.90;;;;;;5001213;28;89771;-39
2023/08/04 09:19:06;;;;;;;3.17;2.20;;;20.00;99.90;;;;;;4989380;28;89337;-33
2023/08/04 09:21:32;;;;;;;3.38;1.58;;;19.90;99.90;;;;;;5000011;28;89197;-37
2023/08/04 09:23:57;;;;;;;1.65;1.55;;;19.70;99.90;;;;;;5000986;28;89775;-33
2023/08/04 09:26:23;;;;;;;2.22;2.10;;;19.50;99.90;;;;;;5000525;28;89333;-36
2023/08/04 09:29:05;;;;;;;2.50;1.90;;;19.60;99.90;;;;;;5000309;28;90125;-41
2023/08/04 09:31:36;;;;;;;3.17;1.92;;;19.50;99.90;;;;;;5000583;28;89125;-37
2023/08/04 09:34:04;;;;;;;4.47;2.42;;;19.30;99.90;;;;;;4988240;28;90268;-35
2023/08/04 09:36:30;;;;;;;2.47;2.00;;;19.20;99.90;;;;;;4986158;28;90725;-36
2023/08/04 09:39:04;;;;;;;2.03;1.83;;;19.10;99.90;;;;;;4981439;28;90920;-34
2023/08/04 09:41:33;;;;;;;3.22;2.20;;;19.00;99.90;;;;;;4980555;28;88074;-34
2023/08/04 09:44:04;;;;;;;2.17;1.88;;;19.00;99.90;;;;;;4980742;28;89907;-34
2023/08/04 09:46:30;;;;;;;2.72;1.80;;;18.80;99.90;;;;;;4980685;28;89796;-34
2023/08/04 09:48:59;;;;;;;1.95;1.70;;;18.80;99.90;;;;;;4981258;28;89721;-34
2023/08/04 09:51:25;;;;;;;4.78;1.70;;;18.80;99.90;;;;;;4966208;28;89783;-37
2023/08/04 09:53:54;;;;;;;5.65;2.42;;;18.80;99.90;;;;;;5000652;28;90051;-35
2023/08/04 09:56:23;;;;;;;2.90;2.60;;;18.80;99.90;;;;;;4999512;28;89981;-32
2023/08/04 09:58:49;;;;;;;3.30;2.97;;;18.90;99.90;;;;;;5000484;28;89613;-32
2023/08/04 10:01:18;;;;;;;2.65;1.80;;;19.00;99.90;;;;;;4999130;28;89697;-35
2023/08/04 10:03:45;;;;;;;;;;;19.30;99.90;;;;;;4996654;28;90051;-37
2023/08/04 10:06:11;;;;;;;2.55;2.03;;;19.50;99.90;;;;;;4998011;28;89422;-34
2023/08/04 10:08:40;;;;;;;5.78;2.28;;;19.70;99.90;;;;;;4997971;28;90962;-31
2023/08/04 10:11:07;;;;;;;4.75;2.25;;;19.60;99.90;;;;;;4997151;28;88696;-34
2023/08/04 10:13:42;;;;;;;2.35;1.80;;;19.70;99.90;;;;;;4999895;28;90329;-35
2023/08/04 10:16:14;;;;;;;3.33;1.80;;;19.90;99.90;;;;;;4988899;28;90172;-36
2023/08/04 10:18:55;;;;;;;5.22;1.70;;;20.10;99.90;;;;;;4978720;28;89152;-33
2023/08/04 10:21:35;;;;;;;3.63;2.28;;;20.00;99.90;;;;;;4996241;28;88882;-31
2023/08/04 10:24:04;;;;;;;4.07;1.65;;;20.00;99.90;;;;;;4997127;28;90330;-32
2023/08/04 10:26:34;;;;;;;1.90;1.80;;;20.20;99.90;;;;;;4993600;28;90995;-31
2023/08/04 10:29:06;;;;;;;2.78;1.70;;;20.20;99.90;;;;;;4996960;28;91067;-39
2023/08/04 10:31:51;;;;;;;2.95;2.05;;;20.40;99.90;;;;;;4986753;28;89621;-34
2023/08/04 10:34:28;;;;;;;3.70;1.95;;;20.40;99.90;;;;;;4988109;28;90173;-32
2023/08/04 10:36:57;;;;;;;1.60;1.50;;;20.20;99.90;;;;;;4999795;28;89877;-33
2023/08/04 10:39:58;;;;;;;4.30;1.60;;;19.90;99.90;;;;;;4999821;28;89531;-31
2023/08/04 10:42:26;;;;;;;2.08;1.38;;;19.80;99.90;;;;;;4957158;28;88354;-32
2023/08/04 10:45:06;;;;;;;2.45;1.58;;;19.40;99.90;;;;;;4999274;28;90718;-36
2023/08/04 10:47:40;;;;;;;3.92;1.45;;;19.30;99.90;;;;;;4999228;28;90361;-34
2023/08/04 10:50:07;;;;;;;2.75;1.83;;;19.00;99.90;;;;;;4987209;28;89910;-32
2023/08/04 10:52:34;;;;;;;11.20;2.15;;;18.90;99.90;;;;;;4998263;28;90681;-31
2023/08/04 10:55:00;;;;;;;4.18;2.22;;;18.80;99.90;;;;;;4991823;28;90725;-37
2023/08/04 10:57:31;;;;;;;3.65;1.40;;;18.90;99.90;;;;;;4992994;28;89991;-35
2023/08/04 10:59:58;;;;;;;4.68;1.80;;;19.00;99.90;;;;;;4992053;28;89524;-33
2023/08/04 11:02:24;;;;;;;4.07;1.45;;;19.00;99.90;;;;;;4995126;28;88736;-35
2023/08/04 11:04:51;;;;;;;2.13;1.65;;;19.20;99.90;;;;;;4988684;28;89233;-31
2023/08/04 11:07:18;;;;;;;2.05;1.50;;;19.10;99.90;;;;;;4993392;28;88948;-32
2023/08/04 11:09:48;;;;;;;4.30;1.85;;;19.10;99.90;;;;;;4980630;28;89543;-32
2023/08/04 11:12:15;;;;;;;2.30;2.10;;;19.00;99.90;;;;;;4981466;28;88845;-32
2023/08/04 11:14:41;;;;;;;7.65;2.15;;;19.00;99.90;;;;;;4979952;28;90259;-32
2023/08/04 11:17:18;;;;;;;2.85;2.15;;;19.20;99.90;;;;;;4980082;28;90558;-37
2023/08/04 11:19:48;;;;;;;3.45;2.60;;;19.50;99.90;;;;;;4980784;28;90320;-32
2023/08/04 11:22:22;;;;;;;3.10;2.20;;;19.40;99.90;;;;;;4980230;28;88436;-33
2023/08/04 11:24:50;;;;;;;3.17;2.42;;;19.30;99.90;;;;;;4980464;28;89660;-36
2023/08/04 11:27:16;;;;;;;6.13;2.92;;;19.30;99.90;;;;;;4979871;28;89542;-36
2023/08/04 11:29:42;;;;;;;3.10;2.45;;;19.20;99.90;;;;;;4991799;28;89743;-34
2023/08/04 11:32:20;;;;;;;4.82;2.38;;;19.00;99.90;;;;;;4984664;28;89725;-34
2023/08/04 11:34:45;;;;;;;6.18;2.10;;;19.00;99.90;;;;;;4999701;28;88679;-32
2023/08/04 11:37:11;;;;;;;4.72;2.60;;;18.90;99.90;;;;;;4998780;28;89881;-35
2023/08/04 11:39:38;;;;;;;4.05;2.35;;;18.90;99.90;;;;;;4997940;28;89525;-33
2023/08/04 11:42:10;;;;;;;7.53;2.33;;;18.90;99.90;;;;;;4997170;28;89676;-33
2023/08/04 11:44:36;;;;;;;2.53;2.25;;;19.20;99.90;;;;;;4996452;28;90455;-35
2023/08/04 11:47:05;;;;;;;4.05;2.20;;;19.40;99.90;;;;;;4986689;28;89683;-37
2023/08/04 11:49:31;;;;;;;3.30;2.28;;;19.40;99.90;;;;;;4978644;28;89454;-33
2023/08/04 11:51:58;;;;;;;3.35;2.03;;;19.30;99.90;;;;;;4998152;28;89995;-33
2023/08/04 11:54:24;;;;;;;8.15;2.50;;;19.30;99.90;;;;;;4995734;28;90526;-33
2023/08/04 11:56:58;;;;;;;2.88;2.17;;;19.30;99.90;;;;;;4997782;28;88764;-35
2023/08/04 11:59:24;;;;;;;3.03;2.15;;;19.30;99.90;;;;;;4996529;28;89777;-33
2023/08/04 12:01:50;;;;;;;3.88;2.40;;;19.40;99.90;;;;;;4999503;28;89669;-38
2023/08/04 12:04:24;;;;;;;3.70;2.40;;;19.40;99.90;;;;;;4993148;28;90461;-32
2023/08/04 12:06:59;;;;;;;4.70;2.63;;;19.50;99.90;;;;;;4994840;28;90801;-38
2023/08/04 12:09:25;;;;;;;5.00;2.22;;;19.50;99.90;;;;;;4994780;28;90692;-33
2023/08/04 12:11:51;;;;;;;2.85;2.08;;;19.50;99.90;;;;;;4994734;28;89439;-37
2023/08/04 12:14:17;;;;;;;4.57;2.45;;;19.50;99.90;;;;;;4994736;28;90136;-35
2023/08/04 12:16:54;;;;;;;4.13;2.45;;;19.50;99.90;;;;;;4994325;28;90175;-35
2023/08/04 12:19:22;;;;;;;6.07;2.27;;;19.60;99.90;;;;;;4970349;28;89449;-31
2023/08/04 12:21:49;;;;;;;10.07;3.23;;;19.50;99.90;;;;;;4993154;28;88264;-33
2023/08/04 12:24:14;;;;;;;6.03;2.77;;;19.40;99.90;;;;;;4996353;28;90211;-30
2023/08/04 12:26:42;;;;;;;2.20;2.00;;;19.30;99.90;;;;;;4993112;28;89500;-33
2023/08/04 12:29:11;;;;;;;4.30;2.57;;;19.20;99.90;;;;;;4994915;28;89654;-37
2023/08/04 12:31:38;;;;;;;2.63;1.75;;;19.10;99.90;;;;;;4984813;28;89767;-32
2023/08/04 12:34:05;;;;;;;1.70;1.60;;;19.00;99.90;;;;;;4978977;28;89996;-34
2023/08/04 12:36:31;;;;;;;9.55;2.75;;;18.80;99.90;;;;;;4992303;28;89695;-32
2023/08/04 12:38:56;;;;;;;3.20;2.10;;;18.70;99.90;;;;;;4979479;28;89736;-38
2023/08/04 12:41:22;;;;;;;3.47;2.65;;;18.70;99.90;;;;;;4980344;28;89896;-33
2023/08/04 12:43:48;;;;;;;1.98;1.88;;;18.60;99.90;;;;;;4979277;28;90185;-33
2023/08/04 12:46:13;;;;;;;2.38;2.08;;;18.60;99.90;;;;;;4979829;28;90166;-36